Time;durP1;ratioP1;P1;durP2;ratioP2;P2;SDS_P1;SDS_P2;PMS_P1;PMS_P2;Temp;Humidity;BMP_temperature;BMP_pressure;BME280_temperature;BME280_humidity;BME280_pressure;Samples;Min_cycle;Max_cycle;Signal;HPM_P1;HPM_P2
2021/11/23 00:00:13;;;;;;;7.00;3.90;;;;;;;1.47;90.93;99754.00;5064790;28;20193;-65
2021/11/23 00:02:39;;;;;;;8.18;4.53;;;;;;;1.47;90.77;99754.00;5064789;28;20028;-65
2021/11/23 00:05:05;;;;;;;7.72;3.92;;;;;;;1.36;90.94;99752.78;5064610;28;20024;-65
2021/11/23 00:07:31;;;;;;;10.52;4.22;;;;;;;1.26;91.18;99750.66;5061082;28;20028;-65
2021/11/23 00:09:57;;;;;;;20.05;4.45;;;;;;;1.29;91.30;99754.25;5064803;28;20073;-65
2021/11/23 00:12:23;;;;;;;7.85;4.32;;;;;;;1.32;91.40;99746.59;5064465;28;20013;-65
2021/11/23 00:14:48;;;;;;;8.55;3.67;;;;;;;1.39;91.39;99745.09;5064216;28;20024;-65
2021/11/23 00:17:15;;;;;;;8.77;3.88;;;;;;;1.38;91.09;99749.41;5064325;28;20020;-65
2021/11/23 00:19:41;;;;;;;5.90;3.35;;;;;;;1.24;91.46;99757.53;5061885;28;20013;-65
2021/11/23 00:22:06;;;;;;;7.95;4.05;;;;;;;1.29;91.83;99755.97;5064310;28;20025;-65
2021/11/23 00:24:31;;;;;;;7.05;4.20;;;;;;;1.37;91.66;99750.22;5064546;28;20021;-65
2021/11/23 00:26:56;;;;;;;6.65;3.45;;;;;;;1.45;91.42;99755.66;5064430;28;20025;-65
2021/11/23 00:29:22;;;;;;;12.15;3.55;;;;;;;1.45;91.50;99760.84;5064724;28;20209;-65
2021/11/23 00:31:47;;;;;;;7.82;3.83;;;;;;;1.48;91.17;99753.16;5064261;28;20033;-65
2021/11/23 00:34:12;;;;;;;9.85;3.60;;;;;;;1.43;90.99;99754.75;5061253;28;20020;-65
2021/11/23 00:36:38;;;;;;;9.27;4.15;;;;;;;1.32;91.25;99758.66;5063790;28;20143;-65
2021/11/23 00:39:04;;;;;;;16.92;4.57;;;;;;;1.32;91.61;99766.44;5063887;28;20340;-65
2021/11/23 00:41:29;;;;;;;8.73;3.70;;;;;;;1.29;91.38;99763.75;5063535;28;20228;-65
2021/11/23 00:43:54;;;;;;;5.95;3.55;;;;;;;1.29;91.65;99775.00;5063546;28;20021;-65
2021/11/23 00:46:20;;;;;;;6.35;3.50;;;;;;;1.28;91.45;99772.34;5063759;28;20017;-65
2021/11/23 00:48:45;;;;;;;7.70;3.58;;;;;;;1.15;91.21;99770.16;5063619;28;20044;-65
2021/11/23 00:51:10;;;;;;;6.75;3.58;;;;;;;1.21;91.38;99778.16;5063428;28;20325;-65
2021/11/23 00:53:36;;;;;;;9.80;3.40;;;;;;;1.25;91.19;99777.44;5063477;28;20024;-65
2021/11/23 00:56:04;;;;;;;5.35;2.88;;;;;;;1.35;91.38;99769.13;5063389;28;20335;-65
2021/11/23 00:58:30;;;;;;;7.88;3.70;;;;;;;1.36;91.11;99770.94;5063330;28;20024;-65
2021/11/23 01:00:55;;;;;;;7.82;3.65;;;;;;;1.24;91.06;99771.34;5063202;28;20249;-65
2021/11/23 01:03:20;;;;;;;11.38;3.67;;;;;;;1.23;91.25;99768.75;5063476;28;20091;-65
2021/11/23 01:05:46;;;;;;;8.25;3.65;;;;;;;1.17;91.16;99769.38;5063125;28;20020;-65
2021/11/23 01:08:15;;;;;;;7.13;3.75;;;;;;;1.06;91.21;99759.47;5063237;28;20017;-65
2021/11/23 01:10:41;;;;;;;6.00;3.33;;;;;;;1.06;91.52;99764.66;5063046;28;20289;-65
2021/11/23 01:13:06;;;;;;;10.15;3.45;;;;;;;1.09;91.54;99769.94;5063380;28;20017;-65
2021/11/23 01:15:31;;;;;;;8.13;3.80;;;;;;;0.99;91.82;99767.84;5063196;28;20087;-65
2021/11/23 01:17:57;;;;;;;8.85;3.90;;;;;;;1.08;91.97;99768.19;5063485;28;20025;-65
2021/11/23 01:20:23;;;;;;;14.05;3.35;;;;;;;1.03;91.68;99759.34;5063332;28;20021;-65
2021/11/23 01:22:48;;;;;;;8.63;3.75;;;;;;;1.04;91.83;99761.13;5063143;28;20020;-65
2021/11/23 01:25:14;;;;;;;7.93;3.45;;;;;;;0.99;91.45;99757.47;5063053;28;20307;-65
2021/11/23 01:27:40;;;;;;;10.65;4.13;;;;;;;1.07;91.91;99766.41;5063003;28;20017;-65
2021/11/23 01:30:07;;;;;;;5.68;3.35;;;;;;;1.02;91.84;99770.56;5062867;28;20052;-65
2021/11/23 01:32:32;;;;;;;8.63;3.88;;;;;;;0.94;91.88;99770.28;5063124;28;20264;-65
2021/11/23 01:34:58;;;;;;;9.07;4.22;;;;;;;0.95;92.04;99771.16;5063085;28;20016;-65
2021/11/23 01:37:23;;;;;;;8.40;4.22;;;;;;;0.96;91.75;99776.41;5063406;28;20339;-65
2021/11/23 01:39:48;;;;;;;7.20;3.78;;;;;;;0.93;91.69;99772.81;5063211;28;20048;-65
2021/11/23 01:42:14;;;;;;;6.28;3.33;;;;;;;0.78;91.65;99767.94;5063063;28;20063;-65
2021/11/23 01:44:39;;;;;;;7.13;3.40;;;;;;;0.69;91.78;99766.75;5063164;28;20055;-65
2021/11/23 01:47:05;;;;;;;8.18;4.13;;;;;;;0.67;91.91;99768.38;5062574;28;20339;-65
2021/11/23 01:49:30;;;;;;;7.10;3.90;;;;;;;0.67;92.28;99763.19;5062492;28;20028;-65
2021/11/23 01:51:55;;;;;;;9.25;3.72;;;;;;;0.61;92.67;99765.56;5063095;28;20109;-65
2021/11/23 01:54:21;;;;;;;7.65;3.83;;;;;;;0.53;92.69;99759.22;5062622;28;20024;-65
2021/11/23 01:56:47;;;;;;;7.03;3.75;;;;;;;0.56;92.66;99765.38;5063245;28;20017;-65
2021/11/23 01:59:12;;;;;;;5.18;3.17;;;;;;;0.54;93.01;99760.97;5062976;28;20021;-65
2021/11/23 02:01:37;;;;;;;6.40;3.47;;;;;;;0.59;93.18;99765.50;5062849;28;20021;-65
2021/11/23 02:04:04;;;;;;;6.03;3.33;;;;;;;0.54;93.26;99766.16;5062900;28;20308;-65
2021/11/23 02:06:30;;;;;;;6.50;3.45;;;;;;;0.48;93.19;99769.41;5063097;28;20029;-65
2021/11/23 02:08:56;;;;;;;8.32;3.33;;;;;;;0.46;93.10;99772.75;5062824;28;20013;-65
2021/11/23 02:11:22;;;;;;;5.10;3.08;;;;;;;0.32;93.25;99768.75;5062404;28;20024;-65
2021/11/23 02:13:47;;;;;;;7.53;3.33;;;;;;;0.22;93.13;99777.00;5062880;28;20080;-65
2021/11/23 02:16:13;;;;;;;10.57;3.53;;;;;;;0.25;93.58;99766.75;5061885;28;20285;-65
2021/11/23 02:18:38;;;;;;;8.95;3.13;;;;;;;0.16;93.08;99762.09;5065045;28;20021;-65
2021/11/23 02:21:04;;;;;;;8.13;3.13;;;;;;;0.08;93.54;99768.69;5065186;28;20017;-65
2021/11/23 02:23:29;;;;;;;6.05;2.75;;;;;;;-0.01;93.83;99771.78;5066001;28;20407;-65
2021/11/23 02:25:54;;;;;;;7.75;3.40;;;;;;;-0.08;94.01;99772.38;5066269;28;20059;-65
2021/11/23 02:28:20;;;;;;;8.75;3.38;;;;;;;-0.03;94.00;99768.25;5066906;28;20025;-65
2021/11/23 02:30:49;;;;;;;6.50;3.17;;;;;;;-0.11;93.95;99774.84;5067188;28;20080;-65
2021/11/23 02:33:17;;;;;;;7.15;3.22;;;;;;;-0.02;94.41;99772.63;5067149;28;20027;-65
2021/11/23 02:35:43;;;;;;;9.98;3.92;;;;;;;-0.04;94.63;99769.06;5067021;28;20071;-65
2021/11/23 02:38:09;;;;;;;9.93;4.00;;;;;;;-0.06;94.89;99764.66;5066938;28;20020;-65
2021/11/23 02:40:34;;;;;;;6.32;3.85;;;;;;;-0.07;94.95;99766.38;5066380;28;20043;-65
2021/11/23 02:42:59;;;;;;;7.38;3.78;;;;;;;-0.20;94.45;99773.56;5066167;28;20032;-65
2021/11/23 02:45:27;;;;;;;6.70;3.45;;;;;;;-0.12;94.09;99767.88;5066188;28;20021;-65
2021/11/23 02:47:53;;;;;;;12.23;3.90;;;;;;;-0.09;94.49;99770.56;5066277;28;20039;-65
2021/11/23 02:50:20;;;;;;;6.70;3.30;;;;;;;-0.20;94.42;99779.63;5066176;28;20027;-65
2021/11/23 02:52:48;;;;;;;6.40;3.13;;;;;;;-0.25;93.66;99773.38;5066531;28;20209;-65
2021/11/23 02:55:14;;;;;;;8.43;3.80;;;;;;;-0.33;93.83;99768.72;5065232;28;20020;-65
2021/11/23 02:57:40;;;;;;;9.68;4.07;;;;;;;-0.44;94.20;99770.84;5065997;28;20024;-65
2021/11/23 03:00:09;;;;;;;5.90;3.42;;;;;;;-0.46;94.95;99763.84;5065663;28;20123;-65
2021/11/23 03:02:35;;;;;;;7.75;4.03;;;;;;;-0.54;94.06;99763.53;5065568;28;20021;-65
2021/11/23 03:05:01;;;;;;;7.97;3.80;;;;;;;-0.62;94.01;99764.94;5065235;28;20261;-65
2021/11/23 03:07:26;;;;;;;13.38;3.97;;;;;;;-0.72;93.44;99760.19;5065744;28;20150;-65
2021/11/23 03:09:52;;;;;;;11.90;3.65;;;;;;;-0.75;93.66;99761.75;5065625;28;20216;-65
2021/11/23 03:12:21;;;;;;;10.30;4.00;;;;;;;-0.88;94.08;99760.31;5065446;28;20017;-65
2021/11/23 03:14:46;;;;;;;7.13;3.88;;;;;;;-1.03;94.38;99753.63;5065143;28;20020;-65
2021/11/23 03:17:16;;;;;;;10.13;3.95;;;;;;;-1.06;94.17;99762.13;5065331;28;20073;-65
2021/11/23 03:19:41;;;;;;;7.88;4.05;;;;;;;-1.02;94.15;99765.72;5063204;28;20013;-65
2021/11/23 03:22:08;;;;;;;12.27;4.28;;;;;;;-0.98;94.97;99765.06;5065341;28;20228;-65
2021/11/23 03:24:34;;;;;;;9.35;3.58;;;;;;;-0.93;94.61;99764.44;5065126;28;20372;-65
2021/11/23 03:26:59;;;;;;;9.32;3.92;;;;;;;-1.01;94.37;99760.59;5065316;28;20017;-65
2021/11/23 03:29:24;;;;;;;7.35;3.75;;;;;;;-0.96;94.29;99761.72;5064611;28;20062;-65
2021/11/23 03:31:49;;;;;;;10.27;3.92;;;;;;;-1.06;94.35;99769.88;5065460;28;20214;-65
2021/11/23 03:34:15;;;;;;;6.60;3.75;;;;;;;-1.12;94.68;99764.44;5065552;28;20028;-65
2021/11/23 03:36:41;;;;;;;9.48;4.13;;;;;;;-1.10;94.84;99762.81;5065555;28;20212;-65
2021/11/23 03:39:08;;;;;;;12.43;4.25;;;;;;;-1.07;94.87;99760.38;5065315;28;20087;-65
2021/11/23 03:41:34;;;;;;;6.78;3.75;;;;;;;-1.07;95.01;99762.97;5065469;28;20020;-65
2021/11/23 03:43:59;;;;;;;8.93;3.60;;;;;;;-1.04;94.90;99770.81;5065179;28;20111;-65
2021/11/23 03:46:24;;;;;;;8.07;4.15;;;;;;;-1.12;94.38;99759.28;5065261;28;20016;-65
2021/11/23 03:48:49;;;;;;;11.13;3.95;;;;;;;-1.02;95.52;99760.53;5065190;28;20031;-65
2021/11/23 03:51:15;;;;;;;9.85;4.63;;;;;;;-0.87;96.29;99762.13;5065437;28;20212;-65
2021/11/23 03:53:40;;;;;;;9.80;4.95;;;;;;;-0.91;95.70;99761.91;5065497;28;20308;-65
2021/11/23 03:56:06;;;;;;;9.40;4.28;;;;;;;-1.12;94.73;99763.53;5064926;28;20316;-65
2021/11/23 03:58:31;;;;;;;7.38;3.78;;;;;;;-1.34;94.30;99764.28;5064938;28;20027;-65
2021/11/23 04:00:57;;;;;;;6.95;3.50;;;;;;;-1.27;95.45;99766.34;5064801;28;20017;-65
2021/11/23 04:03:22;;;;;;;7.75;4.05;;;;;;;-1.31;95.54;99761.84;5064639;28;20017;-65
2021/11/23 04:05:47;;;;;;;8.55;4.53;;;;;;;-1.41;95.18;99757.09;5064403;28;20027;-65
2021/11/23 04:08:12;;;;;;;12.10;5.32;;;;;;;-1.38;95.84;99753.75;5064299;28;20036;-65
2021/11/23 04:10:38;;;;;;;12.75;5.00;;;;;;;-1.34;96.61;99764.28;5064335;28;20080;-65
2021/11/23 04:13:03;;;;;;;10.48;4.70;;;;;;;-1.32;96.29;99757.53;5064306;28;20059;-65
2021/11/23 04:15:29;;;;;;;12.50;5.18;;;;;;;-1.37;96.55;99761.56;5064315;28;20051;-65
2021/11/23 04:17:54;;;;;;;9.57;5.10;;;;;;;-1.36;96.15;99762.47;5064118;28;20047;-65
2021/11/23 04:20:20;;;;;;;9.88;4.90;;;;;;;-1.32;95.97;99752.34;5064059;28;20304;-65
2021/11/23 04:22:45;;;;;;;9.75;4.65;;;;;;;-1.32;96.06;99760.09;5064332;28;20029;-65
2021/11/23 04:25:12;;;;;;;12.85;5.05;;;;;;;-1.32;95.42;99762.69;5064900;28;20021;-65
2021/11/23 04:27:38;;;;;;;9.98;5.05;;;;;;;-1.45;95.27;99754.31;5064302;28;20351;-65
2021/11/23 04:30:06;;;;;;;9.45;4.40;;;;;;;-1.54;95.51;99762.53;5064367;28;20056;-65
2021/11/23 04:32:31;;;;;;;7.60;3.50;;;;;;;-1.57;95.54;99759.81;5064196;28;20040;-65
2021/11/23 04:34:56;;;;;;;10.52;3.83;;;;;;;-1.62;95.74;99763.00;5064029;28;20074;-65
2021/11/23 04:37:22;;;;;;;10.48;4.38;;;;;;;-1.64;95.84;99768.09;5064240;28;20212;-65
2021/11/23 04:39:49;;;;;;;7.68;3.83;;;;;;;-1.67;95.74;99767.94;5064391;28;20025;-65
2021/11/23 04:42:15;;;;;;;14.45;5.40;;;;;;;-1.69;96.36;99771.25;5063836;28;20382;-65
2021/11/23 04:44:40;;;;;;;11.18;4.43;;;;;;;-1.67;96.52;99769.63;5063921;28;20020;-65
2021/11/23 04:47:06;;;;;;;9.15;4.88;;;;;;;-1.73;96.54;99759.91;5064374;28;20048;-65
2021/11/23 04:49:31;;;;;;;10.95;5.03;;;;;;;-1.65;96.08;99763.72;5064553;28;20056;-65
2021/11/23 04:51:56;;;;;;;12.93;4.68;;;;;;;-1.67;96.33;99772.22;5064503;28;20032;-65
2021/11/23 04:54:22;;;;;;;16.20;4.55;;;;;;;-1.61;96.12;99769.91;5064052;28;20344;-65
2021/11/23 04:56:47;;;;;;;14.43;4.95;;;;;;;-1.65;95.83;99778.34;5063810;28;20029;-65
2021/11/23 04:59:12;;;;;;;11.05;4.55;;;;;;;-1.68;95.63;99768.72;5063689;28;20025;-64
2021/11/23 05:01:38;;;;;;;7.90;4.20;;;;;;;-1.76;95.89;99764.94;5063581;28;20017;-64
2021/11/23 05:04:04;;;;;;;13.40;5.20;;;;;;;-1.83;96.00;99761.97;5063566;28;20044;-64
2021/11/23 05:06:30;;;;;;;9.70;4.43;;;;;;;-1.73;95.75;99770.22;5063394;28;20025;-65
2021/11/23 05:08:55;;;;;;;6.10;3.97;;;;;;;-1.76;95.18;99764.94;5059738;28;20025;-65
2021/11/23 05:11:21;;;;;;;9.27;4.65;;;;;;;-1.69;94.85;99776.41;5064213;28;20020;-65
2021/11/23 05:13:47;;;;;;;8.77;4.00;;;;;;;-1.75;94.54;99777.00;5064402;28;20025;-65
2021/11/23 05:16:12;;;;;;;9.27;3.97;;;;;;;-1.87;94.71;99776.44;5063975;28;20056;-65
2021/11/23 05:18:37;;;;;;;8.85;4.43;;;;;;;-1.84;94.71;99779.16;5064083;28;20080;-65
2021/11/23 05:21:02;;;;;;;8.82;4.55;;;;;;;-1.94;94.27;99781.22;5064028;28;20082;-65
2021/11/23 05:23:28;;;;;;;14.32;6.15;;;;;;;-2.03;94.99;99781.66;5064153;28;20024;-65
2021/11/23 05:25:55;;;;;;;17.67;8.65;;;;;;;-2.00;95.04;99786.97;5064278;28;20031;-65
2021/11/23 05:28:20;;;;;;;22.42;8.80;;;;;;;-2.04;94.95;99787.66;5064225;28;20313;-65
2021/11/23 05:30:45;;;;;;;24.55;10.82;;;;;;;-2.06;95.09;99784.09;5063935;28;20028;-65
2021/11/23 05:33:11;;;;;;;17.58;8.55;;;;;;;-2.03;94.56;99789.41;5063929;28;20021;-65
2021/11/23 05:35:36;;;;;;;24.90;10.57;;;;;;;-2.12;94.51;99788.97;5063930;28;20024;-65
2021/11/23 05:38:01;;;;;;;13.80;6.70;;;;;;;-1.86;96.11;99796.28;5063934;28;20032;-65
2021/11/23 05:40:27;;;;;;;17.52;9.07;;;;;;;-1.83;95.91;99787.78;5063746;28;20317;-65
2021/11/23 05:42:52;;;;;;;19.52;10.35;;;;;;;-1.96;95.79;99786.34;5064055;28;20217;-65
2021/11/23 05:45:17;;;;;;;19.63;10.00;;;;;;;-1.99;95.34;99796.50;5063762;28;20052;-65
2021/11/23 05:47:43;;;;;;;11.52;6.32;;;;;;;-1.84;96.75;99799.78;5063798;28;20066;-65
2021/11/23 05:50:09;;;;;;;19.10;9.88;;;;;;;-1.91;95.99;99802.91;5064024;28;20024;-65
2021/11/23 05:52:34;;;;;;;20.02;7.50;;;;;;;-1.89;96.40;99803.88;5064590;28;20020;-65
2021/11/23 05:54:59;;;;;;;13.75;6.43;;;;;;;-1.76;96.89;99801.06;5067907;28;20025;-65
2021/11/23 05:57:25;;;;;;;14.35;6.28;;;;;;;-1.73;96.68;99801.19;5067940;28;20029;-65
2021/11/23 05:59:50;;;;;;;11.82;7.07;;;;;;;-1.71;95.94;99807.28;5067759;28;20255;-65
2021/11/23 06:02:15;;;;;;;15.77;7.22;;;;;;;-1.73;95.85;99801.19;5067680;28;20240;-65
2021/11/23 06:04:41;;;;;;;13.05;6.25;;;;;;;-1.50;96.75;99803.16;5067612;28;20029;-65
2021/11/23 06:07:06;;;;;;;12.48;6.28;;;;;;;-1.54;96.34;99803.81;5067608;28;20031;-65
2021/11/23 06:09:32;;;;;;;16.15;6.20;;;;;;;-1.45;96.73;99813.69;5067566;28;20074;-65
2021/11/23 06:11:57;;;;;;;9.50;5.30;;;;;;;-1.42;96.34;99809.56;5067582;28;20051;-65
2021/11/23 06:14:22;;;;;;;9.00;4.75;;;;;;;-1.40;96.19;99812.19;5067532;28;20025;-65
2021/11/23 06:16:48;;;;;;;8.75;5.13;;;;;;;-1.35;96.40;99816.78;5067314;28;20045;-65
2021/11/23 06:19:13;;;;;;;11.82;5.03;;;;;;;-1.34;96.87;99822.78;5067433;28;20080;-65
2021/11/23 06:21:41;;;;;;;11.23;4.93;;;;;;;-1.30;96.30;99817.84;5067293;28;20025;-65
2021/11/23 06:24:07;;;;;;;18.00;6.47;;;;;;;-1.24;96.79;99820.72;5067572;28;20028;-65
2021/11/23 06:26:33;;;;;;;8.52;4.65;;;;;;;-1.21;97.07;99818.28;5067545;28;20024;-65
2021/11/23 06:28:58;;;;;;;12.18;5.68;;;;;;;-1.20;96.38;99822.59;5067262;28;20035;-65
2021/11/23 06:31:23;;;;;;;11.50;5.95;;;;;;;-1.06;96.37;99825.81;5067431;28;20025;-65
2021/11/23 06:33:48;;;;;;;11.48;5.88;;;;;;;-1.02;95.89;99828.63;5067112;28;20247;-65
2021/11/23 06:36:14;;;;;;;16.27;6.18;;;;;;;-1.21;94.94;99831.19;5067097;28;20048;-65
2021/11/23 06:38:40;;;;;;;15.02;6.25;;;;;;;-1.03;95.96;99832.03;5067083;28;20274;-65
2021/11/23 06:41:06;;;;;;;14.43;5.95;;;;;;;-0.97;96.30;99834.00;5066909;28;20028;-65
2021/11/23 06:43:31;;;;;;;9.10;5.40;;;;;;;-1.04;95.79;99835.41;5066979;28;20020;-65
2021/11/23 06:45:56;;;;;;;14.50;6.05;;;;;;;-1.01;95.70;99838.13;5067194;28;20031;-65
2021/11/23 06:48:22;;;;;;;12.10;4.78;;;;;;;-0.89;95.78;99841.25;5067140;28;20021;-65
2021/11/23 06:50:47;;;;;;;13.55;6.18;;;;;;;-0.97;95.51;99858.13;5066849;28;20025;-65
2021/11/23 06:53:13;;;;;;;13.63;6.13;;;;;;;-0.96;95.20;99849.56;5066792;28;20021;-65
2021/11/23 06:55:42;;;;;;;11.23;5.43;;;;;;;-0.89;95.49;99851.59;5067004;28;20021;-65
2021/11/23 06:58:07;;;;;;;10.07;5.43;;;;;;;-0.85;95.41;99845.75;5065566;28;20043;-65
2021/11/23 07:00:33;;;;;;;10.45;5.78;;;;;;;-0.78;94.83;99852.97;5066568;28;20044;-65
2021/11/23 07:02:58;;;;;;;10.57;5.57;;;;;;;-0.88;94.70;99848.19;5066609;28;20028;-65
2021/11/23 07:05:23;;;;;;;16.38;6.75;;;;;;;-0.92;94.49;99851.47;5065234;28;20084;-65
2021/11/23 07:07:49;;;;;;;17.83;5.93;;;;;;;-1.05;94.39;99851.72;5071663;28;20021;-65
2021/11/23 07:10:15;;;;;;;12.68;5.03;;;;;;;-0.96;94.64;99848.66;5081726;28;20317;-65
2021/11/23 07:12:41;;;;;;;12.73;6.45;;;;;;;-0.96;94.74;99846.97;5069189;28;20067;-65
2021/11/23 07:15:08;;;;;;;12.23;6.03;;;;;;;-1.07;94.13;99855.97;5068686;28;20051;-65
2021/11/23 07:17:34;;;;;;;11.75;5.85;;;;;;;-1.10;94.10;99866.16;5086495;28;20078;-65
2021/11/23 07:19:59;;;;;;;12.18;5.68;;;;;;;-1.21;94.19;99864.75;5086373;28;20033;-65
2021/11/23 07:22:25;;;;;;;10.93;5.47;;;;;;;-1.19;95.04;99870.91;5086207;28;20044;-65
2021/11/23 07:24:50;;;;;;;10.80;5.75;;;;;;;-1.18;94.26;99867.47;5073946;28;20036;-65
2021/11/23 07:27:17;;;;;;;11.88;6.18;;;;;;;-1.10;94.38;99873.00;5062977;28;20025;-65
2021/11/23 07:29:42;;;;;;;9.82;4.82;;;;;;;-0.89;95.62;99872.28;5050412;28;20052;-65
2021/11/23 07:32:08;;;;;;;10.23;4.63;;;;;;;-0.83;95.54;99869.97;5046141;28;20209;-65
2021/11/23 07:34:34;;;;;;;10.85;4.72;;;;;;;-0.74;94.69;99866.91;5046087;28;20037;-65
2021/11/23 07:36:59;;;;;;;16.63;5.70;;;;;;;-0.73;94.48;99858.34;5056060;28;20013;-65
2021/11/23 07:39:27;;;;;;;13.25;5.60;;;;;;;-0.62;94.57;99862.28;5054788;28;20035;-65
2021/11/23 07:41:52;;;;;;;14.82;6.72;;;;;;;-0.55;94.40;99869.47;5056597;28;20084;-65
2021/11/23 07:44:18;;;;;;;17.23;6.90;;;;;;;-0.64;93.75;99859.63;5055421;28;20067;-65
2021/11/23 07:46:43;;;;;;;11.27;6.47;;;;;;;-0.60;94.06;99861.50;5054832;28;20017;-65
2021/11/23 07:49:08;;;;;;;10.77;5.88;;;;;;;-0.63;93.63;99865.69;5056377;28;20016;-65
2021/11/23 07:51:35;;;;;;;12.23;5.57;;;;;;;-0.65;94.04;99863.03;5053651;28;20017;-65
2021/11/23 07:54:00;;;;;;;10.15;5.53;;;;;;;-0.42;94.93;99862.31;5059709;28;20055;-65
2021/11/23 07:56:26;;;;;;;15.63;5.15;;;;;;;-0.21;94.54;99863.25;5061961;28;20340;-65
2021/11/23 07:58:51;;;;;;;10.02;5.60;;;;;;;-0.11;93.91;99860.22;5051144;28;20025;-65
2021/11/23 08:01:17;;;;;;;16.00;6.00;;;;;;;-0.07;93.80;99867.28;5048158;28;20017;-65
2021/11/23 08:03:42;;;;;;;11.90;5.97;;;;;;;-0.24;93.98;99863.13;5055791;28;20025;-65
2021/11/23 08:06:08;;;;;;;9.57;4.97;;;;;;;-0.12;94.73;99873.94;5055371;28;20092;-65
2021/11/23 08:08:34;;;;;;;15.48;5.72;;;;;;;0.14;94.58;99871.56;5055591;28;20299;-65
2021/11/23 08:11:00;;;;;;;12.13;5.47;;;;;;;0.87;93.25;99881.44;5053933;28;20213;-65
2021/11/23 08:13:26;;;;;;;13.18;5.20;;;;;;;1.90;89.12;99887.00;5055527;28;20021;-65
2021/11/23 08:15:51;;;;;;;11.25;4.53;;;;;;;2.92;84.11;99894.69;5054520;28;20367;-65
2021/11/23 08:18:17;;;;;;;6.90;4.07;;;;;;;3.42;80.43;99900.53;5053918;28;20053;-65
2021/11/23 08:20:43;;;;;;;7.68;4.18;;;;;;;4.06;76.96;99898.91;5045082;28;20017;-65
2021/11/23 08:23:09;;;;;;;24.15;15.18;;;;;;;4.92;75.28;99910.56;5047784;28;20114;-65
2021/11/23 08:25:34;;;;;;;12.73;7.15;;;;;;;5.19;73.28;99919.06;5055830;28;20013;-65
2021/11/23 08:27:59;;;;;;;10.90;4.95;;;;;;;5.31;71.74;99906.28;5054469;28;20010;-65
2021/11/23 08:30:25;;;;;;;8.02;4.18;;;;;;;5.90;70.29;99913.63;5054157;28;20024;-65
2021/11/23 08:32:50;;;;;;;8.20;4.82;;;;;;;5.83;70.30;99906.50;5055558;28;20088;-65
2021/11/23 08:35:18;;;;;;;7.57;4.30;;;;;;;5.87;69.68;99905.72;5053832;28;20107;-65
2021/11/23 08:37:43;;;;;;;11.18;4.60;;;;;;;5.84;69.44;99903.03;5046561;28;20031;-65
2021/11/23 08:40:09;;;;;;;6.90;3.88;;;;;;;6.42;67.97;99905.84;5055725;28;20277;-65
2021/11/23 08:42:35;;;;;;;7.47;3.75;;;;;;;6.53;67.35;99910.44;5061978;28;20197;-65
2021/11/23 08:45:01;;;;;;;10.15;3.50;;;;;;;6.06;68.22;99899.97;5062378;28;20039;-65
2021/11/23 08:47:26;;;;;;;5.55;3.00;;;;;;;5.87;67.42;99897.88;5061602;28;20052;-65
2021/11/23 08:49:52;;;;;;;9.02;4.53;;;;;;;6.36;67.40;99901.41;5054464;28;20021;-65
2021/11/23 08:52:18;;;;;;;9.30;3.80;;;;;;;6.13;66.71;99907.06;5055036;28;20076;-65
2021/11/23 08:54:45;;;;;;;15.10;5.72;;;;;;;6.98;65.48;99905.03;5053092;28;20075;-65
2021/11/23 08:57:10;;;;;;;8.35;4.07;;;;;;;7.55;62.16;99918.06;5055535;28;20080;-65
2021/11/23 08:59:42;;;;;;;7.90;3.80;;;;;;;7.39;62.30;99903.91;5055152;28;20325;-65
2021/11/23 09:02:09;;;;;;;10.77;3.42;;;;;;;7.46;62.83;99899.59;5055264;28;20208;-65
2021/11/23 09:04:35;;;;;;;9.65;3.08;;;;;;;8.00;61.89;99914.25;5052973;28;20021;-65
2021/11/23 09:07:07;;;;;;;4.82;2.67;;;;;;;7.93;60.46;99908.91;5053646;28;20085;-65
2021/11/23 09:09:32;;;;;;;6.43;3.10;;;;;;;7.76;61.84;99914.00;5052888;28;20313;-65
2021/11/23 09:12:01;;;;;;;5.35;2.85;;;;;;;7.26;61.82;99904.59;5054919;28;20020;-65
2021/11/23 09:14:28;;;;;;;6.03;2.75;;;;;;;6.76;63.08;99897.72;5054670;28;20021;-65
2021/11/23 09:16:54;;;;;;;4.43;2.50;;;;;;;7.30;62.63;99914.25;5052576;28;20084;-65
2021/11/23 09:19:19;;;;;;;7.13;3.17;;;;;;;7.25;61.28;99910.69;5054297;28;20024;-65
2021/11/23 09:21:45;;;;;;;9.23;2.72;;;;;;;7.47;62.09;99910.09;5052009;28;20041;-65
2021/11/23 09:24:10;;;;;;;6.30;3.05;;;;;;;6.96;62.60;99898.91;5044092;28;20025;-65
2021/11/23 09:26:35;;;;;;;6.85;3.35;;;;;;;7.57;61.90;99919.88;5051741;28;20293;-65
2021/11/23 09:29:01;;;;;;;5.45;2.78;;;;;;;7.34;61.65;99916.03;5051880;28;20030;-65
2021/11/23 09:31:27;;;;;;;6.63;3.05;;;;;;;7.59;61.92;99912.88;5051714;28;20018;-65
2021/11/23 09:33:52;;;;;;;5.97;2.90;;;;;;;7.16;62.96;99910.56;5054966;28;20109;-65
2021/11/23 09:36:18;;;;;;;6.10;3.22;;;;;;;6.72;63.92;99914.22;5063918;28;20334;-65
2021/11/23 09:38:43;;;;;;;9.70;3.28;;;;;;;6.13;65.01;99904.47;5063909;28;20047;-65
2021/11/23 09:41:09;;;;;;;7.53;3.55;;;;;;;5.59;68.19;99901.66;5063736;28;20025;-65
2021/11/23 09:43:35;;;;;;;8.38;4.13;;;;;;;5.48;67.65;99897.06;5063809;28;20214;-65
2021/11/23 09:46:01;;;;;;;10.93;4.60;;;;;;;5.43;67.39;99899.56;5063761;28;20025;-65
2021/11/23 09:48:26;;;;;;;10.95;4.80;;;;;;;5.53;69.04;99895.41;5063798;28;20029;-65
2021/11/23 09:50:53;;;;;;;10.10;4.43;;;;;;;5.24;68.21;99886.09;5063735;28;20228;-65
2021/11/23 09:53:20;;;;;;;15.10;4.30;;;;;;;5.21;67.02;99886.00;5063724;28;20044;-65
2021/11/23 09:55:47;;;;;;;12.18;3.70;;;;;;;5.43;67.29;99888.22;5057601;28;20029;-65
2021/11/23 09:58:13;;;;;;;10.20;3.33;;;;;;;5.29;67.03;99894.91;5043661;28;20029;-65
2021/11/23 10:00:42;;;;;;;4.85;2.55;;;;;;;5.07;67.77;99887.44;5043662;28;20033;-65
2021/11/23 10:03:26;;;;;;;7.80;3.00;;;;;;;5.17;68.66;99885.09;5043872;28;20032;-65
2021/11/23 10:05:53;;;;;;;4.38;2.20;;;;;;;5.15;67.05;99885.88;5043533;28;20022;-65
2021/11/23 10:08:19;;;;;;;2.63;1.70;;;;;;;5.21;66.03;99891.22;5043914;28;20021;-65
2021/11/23 10:10:53;;;;;;;5.00;1.23;;;;;;;5.37;63.77;99882.88;5043633;28;20028;-64
2021/11/23 10:13:20;;;;;;;5.93;1.70;;;;;;;5.30;63.56;99886.22;5043902;28;20025;-64
2021/11/23 10:15:47;;;;;;;3.38;1.30;;;;;;;5.43;64.05;99893.44;5043226;28;20046;-64
2021/11/23 10:18:22;;;;;;;2.63;1.10;;;;;;;5.32;62.59;99880.16;5043467;28;20025;-64
2021/11/23 10:20:50;;;;;;;3.80;1.15;;;;;;;5.48;62.35;99870.94;5043539;28;20280;-64
2021/11/23 10:23:24;;;;;;;6.22;1.70;;;;;;;5.69;62.83;99887.03;5043737;28;20025;-64
2021/11/23 10:25:56;;;;;;;2.38;1.27;;;;;;;5.75;61.55;99881.91;5043527;28;20080;-64
2021/11/23 10:28:25;;;;;;;3.13;1.50;;;;;;;5.69;62.34;99876.56;5043481;28;20025;-64
2021/11/23 10:30:51;;;;;;;2.95;1.40;;;;;;;5.71;61.62;99874.88;5043410;28;20079;-64
2021/11/23 10:33:18;;;;;;;4.90;1.20;;;;;;;5.75;61.05;99880.19;5043696;28;20017;-64
2021/11/23 10:35:46;;;;;;;3.95;1.30;;;;;;;5.90;60.79;99869.19;5043423;28;20028;-64
2021/11/23 10:38:13;;;;;;;4.60;1.23;;;;;;;6.02;60.00;99872.03;5043504;28;20025;-64
2021/11/23 10:40:42;;;;;;;6.30;1.35;;;;;;;6.13;58.93;99881.84;5047272;28;20056;-64
2021/11/23 10:43:14;;;;;;;2.08;0.98;;;;;;;6.09;59.35;99879.13;5047029;28;20391;-64
2021/11/23 10:45:45;;;;;;;1.13;0.88;;;;;;;6.12;58.67;99864.41;5046999;28;20033;-64
2021/11/23 10:48:13;;;;;;;4.45;1.27;;;;;;;6.18;58.30;99874.06;5047056;28;20383;-64
2021/11/23 10:50:41;;;;;;;3.90;1.38;;;;;;;6.25;59.31;99855.03;5047167;28;20085;-64
2021/11/23 10:53:15;;;;;;;2.17;1.23;;;;;;;6.19;59.43;99860.13;5047138;28;20085;-64
2021/11/23 10:55:43;;;;;;;3.78;0.80;;;;;;;6.28;58.64;99857.69;5046862;28;20025;-64
2021/11/23 10:58:12;;;;;;;2.42;0.85;;;;;;;6.44;57.45;99852.75;5046809;28;20084;-64
2021/11/23 11:00:40;;;;;;;8.50;1.27;;;;;;;6.44;58.27;99851.84;5046954;28;20025;-64
2021/11/23 11:03:06;;;;;;;2.88;0.82;;;;;;;6.36;57.96;99856.09;5046660;28;20028;-64
2021/11/23 11:05:42;;;;;;;6.03;0.93;;;;;;;6.45;57.83;99854.50;5046700;28;20021;-64
2021/11/23 11:08:08;;;;;;;2.35;0.70;;;;;;;6.38;57.87;99851.75;5046683;28;20029;-64
2021/11/23 11:10:34;;;;;;;4.95;0.95;;;;;;;6.50;57.29;99842.38;5046551;28;20029;-64
2021/11/23 11:13:02;;;;;;;1.52;0.80;;;;;;;6.68;57.48;99840.91;5046512;28;20049;-64
2021/11/23 11:15:42;;;;;;;4.25;0.80;;;;;;;6.68;57.70;99836.56;5046514;28;20112;-64
2021/11/23 11:18:12;;;;;;;2.88;1.00;;;;;;;6.57;58.13;99838.13;5046481;28;20028;-64
2021/11/23 11:20:44;;;;;;;3.13;1.02;;;;;;;6.89;57.51;99838.63;5046867;28;20194;-64
2021/11/23 11:23:32;;;;;;;2.75;0.85;;;;;;;6.81;56.24;99843.72;5046563;28;20028;-64
2021/11/23 11:28:58;;;;;;;4.97;1.00;;;;;;;7.18;55.52;99845.97;5046236;28;20307;-64
2021/11/23 11:31:29;;;;;;;3.20;1.05;;;;;;;7.10;55.88;99825.81;5046201;28;20375;-64